• Join FlightAware (Why Join?)
  • Login
  • US Flag 
06:28PM EDT


 

Airport Tracker/Info


-or-


 

Live Flight TrackerFlight Track Log ✈ EJA922 ✈ 03-Jul-2013 ✈ KTTN - KSDF

Flight Track Log - Related Links

Times and Time Zones

All times are in EDT time to prevent confusion due to time zone crossing. See the EJA922 flight status page for this flight to view local times or setup timezone preferences in your user account.

Time Position Orientation Groundspeed Altitude Reporting Facility
EDT Latitude Longitude Course Direction KTS MPH feet Rate Location/Type
01:47PM 40.2667 -74.8333 217° Southwest 173 199 1,100  Level Philadelphia TRACON
01:48PM 40.2333 -74.8667 217° Southwest 220 253 2,800 2,640 Climbing Philadelphia TRACON
01:49PM 40.2000 -74.9500 242° Southwest 247 284 5,900 1,980 Climbing Philadelphia TRACON
01:50PM 40.1667 -75.0333 242° Southwest 248 285 7,000 600 Climbing Philadelphia TRACON
01:51PM 40.1333 -75.1167 242° Southwest 266 306 7,200 1,200 Climbing Philadelphia TRACON
01:52PM 40.1167 -75.2000 255° West 264 304 9,300 1,440 Climbing Philadelphia TRACON
01:53PM 40.0667 -75.2833 232° Southwest 276 318 10,000 300 Climbing Philadelphia TRACON
01:54PM 40.0333 -75.3667 242° Southwest 259 298 10,000  Level Philadelphia TRACON
01:55PM 40.0000 -75.4500 242° Southwest 273 314 10,000  Level Philadelphia TRACON
01:57PM 39.9528 -75.5828 245° Southwest 342 394 10,000 600 Level New York Center
01:58PM 39.9158 -75.7183 250° West 356 410 11,500 1,620 Climbing New York Center
01:59PM 39.9128 -75.8428 268° West 371 427 13,300 1,920 Climbing New York Center
02:00PM 39.9125 -75.9889 270° West 376 433 15,400 1,980 Climbing New York Center
02:01PM 39.9092 -76.1131 268° West 381 438 17,300 1,740 Climbing New York Center
02:02PM 39.9111 -76.2514 271° West 381 438 19,000 1,740 Climbing New York Center
02:03PM 39.9150 -76.3925 272° West 387 445 20,800 1,680 Climbing New York Center
02:04PM 39.9228 -76.5339 274° West 387 445 22,300 1,440 Climbing New York Center
02:05PM 39.9283 -76.6725 273° West 387 445 23,800 1,440 Climbing New York Center
02:06PM 39.9333 -76.8192 273° West 387 445 25,300 1,380 Climbing New York Center
02:07PM 39.9403 -76.9658 274° West 399 459 26,700 1,440 Climbing New York Center
02:08PM 39.9450 -77.1153 272° West 409 471 28,200 1,500 Climbing New York Center
02:09PM 39.9489 -77.2728 272° West 422 486 29,700 1,260 Climbing New York Center
02:10PM 39.9550 -77.4250 273° West 427 491 30,800 1,020 Climbing New York Center
02:12PM 39.9681 -77.7767 273° West 433 498 33,000 1,020 Climbing Cleveland Center
02:13PM 39.9719 -77.9444 272° West 456 525 34,000 960 Climbing Cleveland Center
02:14PM 39.9778 -78.1122 273° West 461 531 35,000 840 Climbing Cleveland Center
02:15PM 39.9808 -78.2531 272° West 473 544 35,700 900 Climbing Cleveland Center
02:16PM 39.9825 -78.4400 271° West 473 544 36,800 1,020 Climbing Cleveland Center
02:17PM 39.9856 -78.6133 271° West 473 544 37,800 600 Climbing Cleveland Center
02:18PM 39.9883 -78.7867 271° West 479 551 38,000 60 Climbing Cleveland Center
02:19PM 39.9975 -78.9814 274° West 485 558 38,000  Level Cleveland Center
02:20PM 40.0019 -79.1603 272° West 490 564 38,000  Level Cleveland Center
02:21PM 40.0042 -79.3364 271° West 490 564 38,000  Level Cleveland Center
02:22PM 40.0056 -79.4772 271° West 490 564 38,000  Level Cleveland Center
02:23PM 40.0094 -79.6697 272° West 490 564 38,000  Level Cleveland Center
02:24PM 40.0106 -79.8431 271° West 490 564 38,000  Level Cleveland Center
02:25PM 40.0136 -80.0167 271° West 490 564 38,000  Level Cleveland Center
02:26PM 40.0144 -80.1900 270° West 490 564 38,000  Level Cleveland Center
02:27PM 40.0147 -80.3661 270° West 490 564 38,000  Level Cleveland Center
02:28PM 40.0192 -80.5425 272° West 490 564 38,000  Level Cleveland Center
02:29PM 40.0211 -80.7347 271° West 485 558 38,000  Level Cleveland Center
02:30PM 40.0186 -80.9111 269° West 485 558 38,000  Level Cleveland Center
02:30PM 40.0131 -81.0533 267° West 485 558 38,000  Level Indianapolis Center
02:32PM 40.0108 -81.2289 269° West 481 554 38,000  Level Indianapolis Center
02:33PM 40.0075 -81.4086 269° West 486 559 38,000  Level Indianapolis Center
02:34PM 40.0039 -81.5867 269° West 485 558 38,000  Level Indianapolis Center
02:35PM 39.9689 -81.7475 254° West 464 534 38,000  Level Indianapolis Center
02:36PM 39.9200 -81.9036 248° West 461 531 38,000  Level Indianapolis Center
02:37PM 39.8636 -82.0867 248° West 462 532 38,000  Level Indianapolis Center
02:38PM 39.8158 -82.2419 248° West 459 528 38,000  Level Indianapolis Center
02:39PM 39.7664 -82.3981 248° West 460 529 38,000 -240 Level Indianapolis Center
02:40PM 39.7183 -82.5531 248° West 458 527 37,500 -480 Descending Indianapolis Center
02:41PM 39.6697 -82.7078 248° West 457 526 37,000 -420 Descending Indianapolis Center
02:42PM 39.6194 -82.8633 247° West 462 532 36,700 -660 Descending Indianapolis Center
02:43PM 39.5711 -83.0161 248° West 456 525 35,700 -1,440 Descending Indianapolis Center
02:44PM 39.5208 -83.1703 247° West 456 525 33,800 -2,100 Descending Indianapolis Center
02:45PM 39.4714 -83.3253 248° West 458 527 31,400 -1,860 Descending Indianapolis Center
02:46PM 39.4203 -83.4831 247° West 465 535 30,000 -720 Descending Indianapolis Center
02:47PM 39.3619 -83.6650 248° West 464 534 30,000 -360 Level Indianapolis Center
02:48PM 39.3128 -83.8139 247° West 449 517 29,300 -840 Descending Indianapolis Center
02:49PM 39.2622 -83.9667 247° West 456 525 28,300 -1,020 Descending Indianapolis Center
02:50PM 39.2111 -84.1211 247° West 461 531 27,200 -1,020 Descending Indianapolis Center
02:51PM 39.1603 -84.2733 247° West 459 528 26,200 -1,260 Descending Indianapolis Center
02:52PM 39.1117 -84.4208 247° West 447 514 24,700 -1,860 Descending Indianapolis Center
02:53PM 39.0639 -84.5600 246° West 426 490 22,400 -2,280 Descending Indianapolis Center
02:54PM 39.0333 -84.6667 250° West 410 472 20,600 -2,220 Descending Cincinnati TRACON
02:55PM 38.9500 -84.7667 223° Southwest 376 433 18,500 -1,980 Descending Cincinnati TRACON
02:56PM 38.8431 -84.8706 217° Southwest 353 406 16,000 -1,860 Descending Indianapolis Center
02:57PM 38.7669 -84.9450 217° Southwest 346 398 14,100 -1,500 Descending Indianapolis Center
02:58PM 38.6906 -85.0183 217° Southwest 344 396 13,000 -1,080 Descending Indianapolis Center
02:59PM 38.5992 -85.1056 217° Southwest 378 435 11,900 -1,200 Descending Indianapolis Center
03:00PM 38.5292 -85.1728 217° Southwest 321 369 10,600 -1,500 Descending Indianapolis Center
03:01PM 38.4625 -85.2378 217° Southwest 277 319 8,900 -1,560 Descending Indianapolis Center
03:03PM 38.4444 -85.3247 255° West 261 300 7,400 -1,440 Descending Indianapolis Center
03:04PM 38.4325 -85.4136 260° West 256 295 6,000 -720 Descending Indianapolis Center
03:05PM 38.4200 -85.5022 260° West 253 291 6,000  Level Indianapolis Center
03:06PM 38.4069 -85.5944 260° West 261 300 6,000 -360 Level Indianapolis Center
03:07PM 38.3944 -85.6797 259° West 254 292 5,300 -1,080 Descending Indianapolis Center
03:08PM 38.3803 -85.7628 258° West 246 283 3,800 -1,200 Descending Indianapolis Center
03:09PM 38.3156 -85.7764 189° South 217 250 2,900 -720 Descending Indianapolis Center
03:10PM 38.2692 -85.7589 164° South 192 221 2,400 -720 Descending Indianapolis Center
03:12PM 38.2000 -85.7333 164° South 134 154 700 -780 Descending Louisville TRACON
03:14PM 38.1741 -85.7365 297° West  Level Estimated
03:21PM 38.1741 -85.7365 297° West  Level Estimated